メインページ
METAR-TAF:

METAR-TAF

空港 :

百里飛行場, 日本

緯度: 36-11N, 経度: 140-25E, 海抜: 32m

現時点の気象観測

当レポートは46分前の11:00(UTC)に作成
変向風 2kt
気温 13°C
湿度 51%
気圧 1019 hPa
視程10km以上
高度3000ftの雲はほとんどない
千切れ雲あり

METAR: RJAH 201100Z VRB02KT 9999 FEW030 BKN/// 13/03 Q1019

時間: 20:46 (11:46 UTC)

予報

当レポートは40分前の11:06(UTC)に作成
予報は20日の 12時(UTC)から 21日の 18時(UTC)まで有効
南西の風 5kt
視程10km以上
高度3000ftの雲はほとんどない
20日の 13時(UTC)から 20日の 15時(UTC)まで徐々に
の風 5kt
21日の 03時(UTC)から 21日の 06時(UTC)まで徐々に
南/南東の風 6kt
21日の 15時(UTC)から 21日の 18時(UTC)まで徐々に
東/北東の風 4kt

TAF: RJAH 201106Z 2012/2118 22005KT 9999 FEW030 BECMG 2013/2015 35005KT BECMG 2103/2106 16006KT BECMG 2115/2118 06004KT

4,000以上の空港の気象観測と天気予報(METAR報とTAF報)

利用可能な観測所は地図上に黄色い丸と赤い丸で示す。

丸の上にカーソルを重ねると観測所名を参照できる。

次にクリックすると気象観測と天気予報を参照できる。

マップの切り替え:黒色「×」印の緑ボタンをクリックして拡大、「-」印の緑ボタンをクリックして縮小、緑色の三角印をクリックして隣りの地図に切り替え


METAR-TAF: